Zug um Zug &ndash von Gleis zu Gleis Zug um Zug &ndash von Gleis zu Gleis

Geschichte der Partien

Geschichte der Partien von *player169907
Spiel: 

Geschichte der Partien
[letzte 15 Tage] | [2008 (100)] | [2007 (254)] | [2006 (22)] 
Datum Punkte für *player169907 Andere Spieler und Punkte Variante Partie wird gewertet
10.10.2008 110 *player419930(150) - oldnscale(133) - Traveler74(91) us x
10.10.2008 165 *player451716(143) - nanny(143) - *player220340(63) u2 x
07.10.2008 103 Bartyboy2(146) - KeithNotInSeattle(104) - Gram86(90) eu x
07.10.2008 125 ebbera(82) - *player465292(60) - *player481871(41) us x
05.10.2008 144 momgirl(122) - Allix(112) - Pappy29(86) us x
05.10.2008 133 McDoughboy(122) - *player465257(120) - Thompsmak(119) eu x
05.10.2008 107 sotark00(94) - alima 1400+(89) - wallybradman(71) eu x
27.09.2008 119 staremperor(122) - AZTrainGirl(111) ch x
26.09.2008 129 *player411217(125) - Mauricio(88) - dave2250(86) eu x
01.09.2008 48 Norwoodian(137) - Tutoro(128) - Terran Sin(105) u2 x
31.08.2008 98 TxxxxFamily1(181) - staremperor(81) ch x
31.08.2008 144 Balou2007(112) - *player463708(100) eu x
26.08.2008 120 *player420864(125) - kudlpape(97) - *player377000(41) eu x
26.08.2008 129 *player462783(135) - *player273546(104) - kikafer(6) us x
22.08.2008 133 *player462179(127) - North(107) - BetaCygni(82) eu x
21.08.2008 119 lepomal(114) - efel63(111) - vince noir(91) eu x
20.08.2008 129 *player470264(98) - nathgab(90) - Nordicmas(80) eu x
20.08.2008 117 NiciFG(126) - *player443299(108) - *player378336(83) eu x
17.08.2008 151 *player463159(131) - allimaree(130) - kinetic(117) eu x
16.08.2008 159 Beautiful(129) - *player419124(90) - *player468285(84) u1 x
Seiten (5): [1  2  3  4  5  >  » ]